Glover, Vermont
Current Conditions -  °F | °C
As of 7:15 PM on Friday 21 Nov 2014 (Local Time) from KCDA Reporting Station
Clear Clear  
Wind Chill:   Ceiling: Unl
Heat Index: 16°   Visibility: 10mi
Dew Point:   Wind: 5mph
Humidity: 53%   Direction: 40°NE
Pressure: 30.28"   Gusts: NA
Location:  44.7°N, 72.21°W
Report Text: KCDA 220015Z AUTO 04004KT 10SM CLR M09/M17 A3028 RMK AO2 T10911171
Loading
Personal Weather Stations






























Interactive Weather Map New forecast layout! Learn more

10-Day Weather Forecast

Advertisements
Track Severe Weather on mobile